sensor_id;sensor_type;location;lat;lon;timestamp;P1;durP1;ratioP1;P2;durP2;ratioP2
22388;SDS011;11362;48.102;11.620;2024-03-08T00:01:24;3.70;;;3.40;;
22388;SDS011;11362;48.102;11.620;2024-03-08T00:03:50;3.43;;;3.23;;
22388;SDS011;11362;48.102;11.620;2024-03-08T00:06:15;3.67;;;3.37;;
22388;SDS011;11362;48.102;11.620;2024-03-08T00:08:40;3.47;;;3.27;;
22388;SDS011;11362;48.102;11.620;2024-03-08T00:11:06;3.37;;;2.80;;
22388;SDS011;11362;48.102;11.620;2024-03-08T00:13:31;3.43;;;3.23;;
22388;SDS011;11362;48.102;11.620;2024-03-08T00:15:56;3.30;;;3.10;;
22388;SDS011;11362;48.102;11.620;2024-03-08T00:18:21;4.43;;;3.23;;
22388;SDS011;11362;48.102;11.620;2024-03-08T00:20:47;3.00;;;2.90;;
22388;SDS011;11362;48.102;11.620;2024-03-08T00:23:12;3.07;;;2.90;;
22388;SDS011;11362;48.102;11.620;2024-03-08T00:25:37;3.70;;;3.40;;
22388;SDS011;11362;48.102;11.620;2024-03-08T00:28:03;3.27;;;3.07;;
22388;SDS011;11362;48.102;11.620;2024-03-08T00:30:28;3.20;;;3.00;;
22388;SDS011;11362;48.102;11.620;2024-03-08T00:32:53;3.77;;;3.47;;
22388;SDS011;11362;48.102;11.620;2024-03-08T00:35:19;5.27;;;3.40;;
22388;SDS011;11362;48.102;11.620;2024-03-08T00:37:44;3.50;;;3.30;;
22388;SDS011;11362;48.102;11.620;2024-03-08T00:40:09;3.87;;;3.57;;
22388;SDS011;11362;48.102;11.620;2024-03-08T00:42:35;3.70;;;3.40;;
22388;SDS011;11362;48.102;11.620;2024-03-08T00:45:00;4.13;;;3.83;;
22388;SDS011;11362;48.102;11.620;2024-03-08T00:47:26;3.90;;;3.60;;
22388;SDS011;11362;48.102;11.620;2024-03-08T00:49:51;4.50;;;3.47;;
22388;SDS011;11362;48.102;11.620;2024-03-08T00:52:16;3.03;;;2.83;;
22388;SDS011;11362;48.102;11.620;2024-03-08T00:54:42;2.90;;;2.70;;
22388;SDS011;11362;48.102;11.620;2024-03-08T00:57:07;3.20;;;3.00;;
22388;SDS011;11362;48.102;11.620;2024-03-08T00:59:32;3.70;;;3.50;;
22388;SDS011;11362;48.102;11.620;2024-03-08T01:01:58;3.40;;;3.20;;
22388;SDS011;11362;48.102;11.620;2024-03-08T01:04:23;3.57;;;3.27;;
22388;SDS011;11362;48.102;11.620;2024-03-08T01:06:49;4.10;;;3.80;;
22388;SDS011;11362;48.102;11.620;2024-03-08T01:09:14;3.40;;;3.20;;
22388;SDS011;11362;48.102;11.620;2024-03-08T01:11:39;2.97;;;2.83;;
22388;SDS011;11362;48.102;11.620;2024-03-08T01:14:05;3.27;;;2.83;;
22388;SDS011;11362;48.102;11.620;2024-03-08T01:16:30;3.17;;;3.03;;
22388;SDS011;11362;48.102;11.620;2024-03-08T01:18:55;3.33;;;2.90;;
22388;SDS011;11362;48.102;11.620;2024-03-08T01:21:20;2.93;;;2.73;;
22388;SDS011;11362;48.102;11.620;2024-03-08T01:23:46;3.07;;;2.60;;
22388;SDS011;11362;48.102;11.620;2024-03-08T01:26:11;3.23;;;2.93;;
22388;SDS011;11362;48.102;11.620;2024-03-08T01:28:36;3.50;;;3.20;;
22388;SDS011;11362;48.102;11.620;2024-03-08T01:31:01;3.23;;;3.03;;
22388;SDS011;11362;48.102;11.620;2024-03-08T01:33:27;3.20;;;3.00;;
22388;SDS011;11362;48.102;11.620;2024-03-08T01:35:52;2.77;;;2.57;;
22388;SDS011;11362;48.102;11.620;2024-03-08T01:38:18;3.00;;;2.80;;
22388;SDS011;11362;48.102;11.620;2024-03-08T01:40:44;3.47;;;3.17;;
22388;SDS011;11362;48.102;11.620;2024-03-08T01:45:44;3.43;;;3.13;;
22388;SDS011;11362;48.102;11.620;2024-03-08T01:48:09;2.93;;;2.73;;
22388;SDS011;11362;48.102;11.620;2024-03-08T01:50:35;3.63;;;3.33;;
22388;SDS011;11362;48.102;11.620;2024-03-08T01:53:00;3.43;;;3.17;;
22388;SDS011;11362;48.102;11.620;2024-03-08T01:55:26;3.63;;;3.33;;
22388;SDS011;11362;48.102;11.620;2024-03-08T01:57:51;3.37;;;3.10;;
22388;SDS011;11362;48.102;11.620;2024-03-08T02:00:17;3.30;;;3.10;;
22388;SDS011;11362;48.102;11.620;2024-03-08T02:02:43;4.37;;;3.27;;
22388;SDS011;11362;48.102;11.620;2024-03-08T02:05:11;3.37;;;3.07;;
22388;SDS011;11362;48.102;11.620;2024-03-08T02:07:37;3.13;;;2.93;;
22388;SDS011;11362;48.102;11.620;2024-03-08T02:10:02;2.80;;;2.60;;
22388;SDS011;11362;48.102;11.620;2024-03-08T02:12:27;3.10;;;2.90;;
22388;SDS011;11362;48.102;11.620;2024-03-08T02:14:53;3.70;;;3.10;;
22388;SDS011;11362;48.102;11.620;2024-03-08T02:17:18;3.07;;;2.87;;
22388;SDS011;11362;48.102;11.620;2024-03-08T02:19:43;2.97;;;2.77;;
22388;SDS011;11362;48.102;11.620;2024-03-08T02:22:08;3.30;;;3.10;;
22388;SDS011;11362;48.102;11.620;2024-03-08T02:24:34;3.10;;;2.90;;
22388;SDS011;11362;48.102;11.620;2024-03-08T02:26:59;2.93;;;2.73;;
22388;SDS011;11362;48.102;11.620;2024-03-08T02:29:24;3.13;;;2.93;;
22388;SDS011;11362;48.102;11.620;2024-03-08T02:31:50;3.33;;;3.10;;
22388;SDS011;11362;48.102;11.620;2024-03-08T02:34:16;3.40;;;3.20;;
22388;SDS011;11362;48.102;11.620;2024-03-08T02:36:41;3.47;;;3.17;;
22388;SDS011;11362;48.102;11.620;2024-03-08T02:39:07;3.63;;;3.33;;
22388;SDS011;11362;48.102;11.620;2024-03-08T02:41:32;2.70;;;2.60;;
22388;SDS011;11362;48.102;11.620;2024-03-08T02:43:57;3.40;;;3.20;;
22388;SDS011;11362;48.102;11.620;2024-03-08T02:46:22;3.33;;;3.00;;
22388;SDS011;11362;48.102;11.620;2024-03-08T02:48:48;3.30;;;3.00;;
22388;SDS011;11362;48.102;11.620;2024-03-08T02:51:13;3.03;;;2.83;;
22388;SDS011;11362;48.102;11.620;2024-03-08T02:53:39;3.37;;;3.07;;
22388;SDS011;11362;48.102;11.620;2024-03-08T02:56:04;3.33;;;3.03;;
22388;SDS011;11362;48.102;11.620;2024-03-08T02:58:29;2.93;;;2.73;;
22388;SDS011;11362;48.102;11.620;2024-03-08T03:00:55;3.50;;;3.20;;
22388;SDS011;11362;48.102;11.620;2024-03-08T03:03:20;3.17;;;2.97;;
22388;SDS011;11362;48.102;11.620;2024-03-08T03:05:45;3.10;;;2.90;;
22388;SDS011;11362;48.102;11.620;2024-03-08T03:08:11;3.10;;;2.80;;
22388;SDS011;11362;48.102;11.620;2024-03-08T03:10:36;2.23;;;2.13;;
22388;SDS011;11362;48.102;11.620;2024-03-08T03:13:01;2.93;;;2.83;;
22388;SDS011;11362;48.102;11.620;2024-03-08T03:15:26;3.23;;;3.03;;
22388;SDS011;11362;48.102;11.620;2024-03-08T03:17:52;3.50;;;3.30;;
22388;SDS011;11362;48.102;11.620;2024-03-08T03:20:17;3.20;;;3.00;;
22388;SDS011;11362;48.102;11.620;2024-03-08T03:22:43;3.10;;;2.97;;
22388;SDS011;11362;48.102;11.620;2024-03-08T03:25:08;2.87;;;2.67;;
22388;SDS011;11362;48.102;11.620;2024-03-08T03:27:34;3.10;;;2.80;;
22388;SDS011;11362;48.102;11.620;2024-03-08T03:29:59;3.20;;;2.90;;
22388;SDS011;11362;48.102;11.620;2024-03-08T03:32:24;3.07;;;2.87;;
22388;SDS011;11362;48.102;11.620;2024-03-08T03:34:49;3.10;;;2.90;;
22388;SDS011;11362;48.102;11.620;2024-03-08T03:37:15;3.00;;;2.80;;
22388;SDS011;11362;48.102;11.620;2024-03-08T03:39:40;2.60;;;2.50;;
22388;SDS011;11362;48.102;11.620;2024-03-08T03:42:05;2.80;;;2.60;;
22388;SDS011;11362;48.102;11.620;2024-03-08T03:44:31;3.37;;;2.77;;
22388;SDS011;11362;48.102;11.620;2024-03-08T03:46:56;3.17;;;2.90;;
22388;SDS011;11362;48.102;11.620;2024-03-08T03:49:21;3.17;;;2.97;;
22388;SDS011;11362;48.102;11.620;2024-03-08T03:51:46;3.00;;;2.80;;
22388;SDS011;11362;48.102;11.620;2024-03-08T03:54:12;3.20;;;3.00;;
22388;SDS011;11362;48.102;11.620;2024-03-08T03:56:38;2.67;;;2.57;;
22388;SDS011;11362;48.102;11.620;2024-03-08T03:59:03;3.23;;;3.03;;
22388;SDS011;11362;48.102;11.620;2024-03-08T04:01:28;3.27;;;3.07;;
22388;SDS011;11362;48.102;11.620;2024-03-08T04:03:53;3.30;;;2.97;;
22388;SDS011;11362;48.102;11.620;2024-03-08T04:06:19;3.47;;;3.17;;
22388;SDS011;11362;48.102;11.620;2024-03-08T04:08:44;3.07;;;2.87;;
22388;SDS011;11362;48.102;11.620;2024-03-08T04:11:09;3.03;;;2.83;;
22388;SDS011;11362;48.102;11.620;2024-03-08T04:13:34;2.77;;;2.67;;
22388;SDS011;11362;48.102;11.620;2024-03-08T04:16:00;2.93;;;2.73;;
22388;SDS011;11362;48.102;11.620;2024-03-08T04:18:25;3.07;;;2.80;;
22388;SDS011;11362;48.102;11.620;2024-03-08T04:20:51;3.00;;;2.80;;
22388;SDS011;11362;48.102;11.620;2024-03-08T04:23:16;3.20;;;3.00;;
22388;SDS011;11362;48.102;11.620;2024-03-08T04:25:41;3.00;;;2.80;;
22388;SDS011;11362;48.102;11.620;2024-03-08T04:28:06;3.50;;;3.20;;
22388;SDS011;11362;48.102;11.620;2024-03-08T04:30:32;2.67;;;2.57;;
22388;SDS011;11362;48.102;11.620;2024-03-08T04:32:57;3.30;;;3.10;;
22388;SDS011;11362;48.102;11.620;2024-03-08T04:35:22;3.40;;;3.20;;
22388;SDS011;11362;48.102;11.620;2024-03-08T04:37:47;3.20;;;3.00;;
22388;SDS011;11362;48.102;11.620;2024-03-08T04:40:13;3.07;;;2.87;;
22388;SDS011;11362;48.102;11.620;2024-03-08T04:42:38;3.00;;;2.80;;
22388;SDS011;11362;48.102;11.620;2024-03-08T04:45:05;3.07;;;2.87;;
22388;SDS011;11362;48.102;11.620;2024-03-08T04:47:31;3.07;;;2.87;;
22388;SDS011;11362;48.102;11.620;2024-03-08T04:49:56;3.30;;;3.10;;
22388;SDS011;11362;48.102;11.620;2024-03-08T04:52:21;2.77;;;2.57;;
22388;SDS011;11362;48.102;11.620;2024-03-08T04:54:46;3.23;;;3.03;;
22388;SDS011;11362;48.102;11.620;2024-03-08T04:57:12;3.30;;;3.00;;
22388;SDS011;11362;48.102;11.620;2024-03-08T04:59:37;3.40;;;3.10;;
22388;SDS011;11362;48.102;11.620;2024-03-08T05:02:02;3.50;;;3.30;;
22388;SDS011;11362;48.102;11.620;2024-03-08T05:04:28;3.73;;;3.53;;
22388;SDS011;11362;48.102;11.620;2024-03-08T05:06:53;2.93;;;2.73;;
22388;SDS011;11362;48.102;11.620;2024-03-08T05:09:18;3.67;;;3.37;;
22388;SDS011;11362;48.102;11.620;2024-03-08T05:11:44;3.07;;;2.90;;
22388;SDS011;11362;48.102;11.620;2024-03-08T05:14:10;2.90;;;2.70;;
22388;SDS011;11362;48.102;11.620;2024-03-08T05:16:35;2.93;;;2.73;;
22388;SDS011;11362;48.102;11.620;2024-03-08T05:19:01;3.50;;;3.30;;
22388;SDS011;11362;48.102;11.620;2024-03-08T05:21:27;2.97;;;2.83;;
22388;SDS011;11362;48.102;11.620;2024-03-08T05:23:52;2.77;;;2.57;;
22388;SDS011;11362;48.102;11.620;2024-03-08T05:26:18;3.07;;;2.97;;
22388;SDS011;11362;48.102;11.620;2024-03-08T05:28:43;2.87;;;2.77;;
22388;SDS011;11362;48.102;11.620;2024-03-08T05:31:08;3.40;;;3.13;;
22388;SDS011;11362;48.102;11.620;2024-03-08T05:33:33;3.37;;;3.17;;
22388;SDS011;11362;48.102;11.620;2024-03-08T05:35:59;3.63;;;3.43;;
22388;SDS011;11362;48.102;11.620;2024-03-08T05:38:24;3.27;;;3.07;;
22388;SDS011;11362;48.102;11.620;2024-03-08T05:40:49;3.70;;;3.40;;
22388;SDS011;11362;48.102;11.620;2024-03-08T05:43:14;3.33;;;3.13;;
22388;SDS011;11362;48.102;11.620;2024-03-08T05:45:40;3.40;;;3.20;;
22388;SDS011;11362;48.102;11.620;2024-03-08T05:48:05;3.37;;;3.17;;
22388;SDS011;11362;48.102;11.620;2024-03-08T05:50:31;3.00;;;2.80;;
22388;SDS011;11362;48.102;11.620;2024-03-08T05:52:56;3.43;;;3.23;;
22388;SDS011;11362;48.102;11.620;2024-03-08T05:55:21;3.27;;;3.17;;
22388;SDS011;11362;48.102;11.620;2024-03-08T05:57:47;3.13;;;2.93;;
22388;SDS011;11362;48.102;11.620;2024-03-08T06:00:12;3.53;;;3.33;;
22388;SDS011;11362;48.102;11.620;2024-03-08T06:02:38;3.73;;;3.43;;
22388;SDS011;11362;48.102;11.620;2024-03-08T06:05:03;7.73;;;3.97;;
22388;SDS011;11362;48.102;11.620;2024-03-08T06:07:29;8.63;;;4.00;;
22388;SDS011;11362;48.102;11.620;2024-03-08T06:09:54;10.80;;;3.67;;
22388;SDS011;11362;48.102;11.620;2024-03-08T06:12:20;4.00;;;3.70;;
22388;SDS011;11362;48.102;11.620;2024-03-08T06:14:45;12.63;;;4.77;;
22388;SDS011;11362;48.102;11.620;2024-03-08T06:17:10;11.47;;;4.47;;
22388;SDS011;11362;48.102;11.620;2024-03-08T06:19:35;5.90;;;4.50;;
22388;SDS011;11362;48.102;11.620;2024-03-08T06:22:01;7.27;;;3.90;;
22388;SDS011;11362;48.102;11.620;2024-03-08T06:24:26;8.57;;;4.33;;
22388;SDS011;11362;48.102;11.620;2024-03-08T06:26:51;10.40;;;4.03;;
22388;SDS011;11362;48.102;11.620;2024-03-08T06:29:16;7.30;;;3.87;;
22388;SDS011;11362;48.102;11.620;2024-03-08T06:31:42;11.53;;;4.53;;
22388;SDS011;11362;48.102;11.620;2024-03-08T06:34:07;9.37;;;4.27;;
22388;SDS011;11362;48.102;11.620;2024-03-08T06:36:32;5.07;;;3.90;;
22388;SDS011;11362;48.102;11.620;2024-03-08T06:38:58;5.93;;;3.93;;
22388;SDS011;11362;48.102;11.620;2024-03-08T06:41:23;8.97;;;4.40;;
22388;SDS011;11362;48.102;11.620;2024-03-08T06:43:48;6.00;;;4.57;;
22388;SDS011;11362;48.102;11.620;2024-03-08T06:46:16;9.33;;;4.80;;
22388;SDS011;11362;48.102;11.620;2024-03-08T06:48:42;5.87;;;4.37;;
22388;SDS011;11362;48.102;11.620;2024-03-08T06:51:08;8.07;;;4.60;;
22388;SDS011;11362;48.102;11.620;2024-03-08T06:53:33;11.70;;;5.03;;
22388;SDS011;11362;48.102;11.620;2024-03-08T06:55:58;12.97;;;5.13;;
22388;SDS011;11362;48.102;11.620;2024-03-08T06:58:24;15.00;;;5.33;;
22388;SDS011;11362;48.102;11.620;2024-03-08T07:00:49;11.27;;;5.57;;
22388;SDS011;11362;48.102;11.620;2024-03-08T07:03:15;13.10;;;5.23;;
22388;SDS011;11362;48.102;11.620;2024-03-08T07:05:40;9.30;;;5.10;;
22388;SDS011;11362;48.102;11.620;2024-03-08T07:08:05;9.40;;;5.47;;
22388;SDS011;11362;48.102;11.620;2024-03-08T07:10:31;14.10;;;5.47;;
22388;SDS011;11362;48.102;11.620;2024-03-08T07:12:56;15.37;;;5.83;;
22388;SDS011;11362;48.102;11.620;2024-03-08T07:15:21;15.17;;;5.63;;
22388;SDS011;11362;48.102;11.620;2024-03-08T07:17:47;11.33;;;5.07;;
22388;SDS011;11362;48.102;11.620;2024-03-08T07:20:13;7.77;;;4.23;;
22388;SDS011;11362;48.102;11.620;2024-03-08T07:22:38;8.50;;;5.23;;
22388;SDS011;11362;48.102;11.620;2024-03-08T07:25:07;10.90;;;5.73;;
22388;SDS011;11362;48.102;11.620;2024-03-08T07:27:33;11.80;;;4.73;;
22388;SDS011;11362;48.102;11.620;2024-03-08T07:29:59;10.57;;;4.87;;
22388;SDS011;11362;48.102;11.620;2024-03-08T07:32:24;13.07;;;4.67;;
22388;SDS011;11362;48.102;11.620;2024-03-08T07:34:49;13.10;;;5.93;;
22388;SDS011;11362;48.102;11.620;2024-03-08T07:37:15;12.57;;;5.00;;
22388;SDS011;11362;48.102;11.620;2024-03-08T07:39:40;12.60;;;5.17;;
22388;SDS011;11362;48.102;11.620;2024-03-08T07:42:05;13.40;;;5.10;;
22388;SDS011;11362;48.102;11.620;2024-03-08T07:44:30;8.33;;;4.67;;
22388;SDS011;11362;48.102;11.620;2024-03-08T07:46:56;9.20;;;5.33;;
22388;SDS011;11362;48.102;11.620;2024-03-08T07:49:21;7.73;;;5.23;;
22388;SDS011;11362;48.102;11.620;2024-03-08T07:51:46;7.93;;;5.07;;
22388;SDS011;11362;48.102;11.620;2024-03-08T07:54:12;8.87;;;4.30;;
22388;SDS011;11362;48.102;11.620;2024-03-08T07:56:37;10.90;;;5.00;;
22388;SDS011;11362;48.102;11.620;2024-03-08T07:59:02;8.07;;;5.07;;
22388;SDS011;11362;48.102;11.620;2024-03-08T08:01:28;9.87;;;4.93;;
22388;SDS011;11362;48.102;11.620;2024-03-08T08:03:53;9.60;;;5.10;;
22388;SDS011;11362;48.102;11.620;2024-03-08T08:06:18;9.93;;;5.03;;
22388;SDS011;11362;48.102;11.620;2024-03-08T08:08:44;9.33;;;4.43;;
22388;SDS011;11362;48.102;11.620;2024-03-08T08:11:09;5.87;;;4.30;;
22388;SDS011;11362;48.102;11.620;2024-03-08T08:13:35;5.87;;;4.67;;
22388;SDS011;11362;48.102;11.620;2024-03-08T08:16:00;12.40;;;4.77;;
22388;SDS011;11362;48.102;11.620;2024-03-08T08:18:26;11.20;;;5.00;;
22388;SDS011;11362;48.102;11.620;2024-03-08T08:20:51;7.40;;;4.23;;
22388;SDS011;11362;48.102;11.620;2024-03-08T08:23:16;5.87;;;3.93;;
22388;SDS011;11362;48.102;11.620;2024-03-08T08:25:42;7.77;;;4.73;;
22388;SDS011;11362;48.102;11.620;2024-03-08T08:28:07;7.30;;;4.77;;
22388;SDS011;11362;48.102;11.620;2024-03-08T08:30:32;7.93;;;4.60;;
22388;SDS011;11362;48.102;11.620;2024-03-08T08:32:58;7.07;;;4.40;;
22388;SDS011;11362;48.102;11.620;2024-03-08T08:35:23;5.03;;;3.83;;
22388;SDS011;11362;48.102;11.620;2024-03-08T08:37:48;8.53;;;4.27;;
22388;SDS011;11362;48.102;11.620;2024-03-08T08:40:14;7.93;;;4.67;;
22388;SDS011;11362;48.102;11.620;2024-03-08T08:42:39;5.27;;;3.93;;
22388;SDS011;11362;48.102;11.620;2024-03-08T08:45:06;9.03;;;5.23;;
22388;SDS011;11362;48.102;11.620;2024-03-08T08:47:32;6.93;;;4.17;;
22388;SDS011;11362;48.102;11.620;2024-03-08T08:49:57;7.30;;;4.90;;
22388;SDS011;11362;48.102;11.620;2024-03-08T08:52:22;5.63;;;4.60;;
22388;SDS011;11362;48.102;11.620;2024-03-08T08:54:47;8.37;;;4.93;;
22388;SDS011;11362;48.102;11.620;2024-03-08T08:57:13;6.50;;;4.87;;
22388;SDS011;11362;48.102;11.620;2024-03-08T08:59:38;4.67;;;3.63;;
22388;SDS011;11362;48.102;11.620;2024-03-08T09:02:03;5.63;;;4.07;;
22388;SDS011;11362;48.102;11.620;2024-03-08T09:04:29;7.90;;;4.30;;
22388;SDS011;11362;48.102;11.620;2024-03-08T09:06:54;6.10;;;4.00;;
22388;SDS011;11362;48.102;11.620;2024-03-08T09:09:20;5.90;;;4.50;;
22388;SDS011;11362;48.102;11.620;2024-03-08T09:11:45;9.97;;;4.57;;
22388;SDS011;11362;48.102;11.620;2024-03-08T09:14:10;4.47;;;4.07;;
22388;SDS011;11362;48.102;11.620;2024-03-08T09:16:35;5.43;;;4.50;;
22388;SDS011;11362;48.102;11.620;2024-03-08T09:19:01;5.63;;;4.30;;
22388;SDS011;11362;48.102;11.620;2024-03-08T09:21:26;9.43;;;4.53;;
22388;SDS011;11362;48.102;11.620;2024-03-08T09:23:51;6.70;;;4.13;;
22388;SDS011;11362;48.102;11.620;2024-03-08T09:26:16;5.33;;;4.53;;
22388;SDS011;11362;48.102;11.620;2024-03-08T09:28:42;5.10;;;4.33;;
22388;SDS011;11362;48.102;11.620;2024-03-08T09:31:07;6.80;;;4.03;;
22388;SDS011;11362;48.102;11.620;2024-03-08T09:33:32;5.50;;;4.17;;
22388;SDS011;11362;48.102;11.620;2024-03-08T09:35:58;10.60;;;4.20;;
22388;SDS011;11362;48.102;11.620;2024-03-08T09:38:23;4.40;;;4.00;;
22388;SDS011;11362;48.102;11.620;2024-03-08T09:40:48;12.80;;;4.20;;
22388;SDS011;11362;48.102;11.620;2024-03-08T09:43:14;6.17;;;4.40;;
22388;SDS011;11362;48.102;11.620;2024-03-08T09:45:40;4.67;;;4.27;;
22388;SDS011;11362;48.102;11.620;2024-03-08T09:48:05;4.70;;;4.20;;
22388;SDS011;11362;48.102;11.620;2024-03-08T09:50:34;8.23;;;3.63;;
22388;SDS011;11362;48.102;11.620;2024-03-08T09:52:59;5.53;;;3.83;;
22388;SDS011;11362;48.102;11.620;2024-03-08T09:55:25;4.90;;;3.83;;
22388;SDS011;11362;48.102;11.620;2024-03-08T09:57:51;8.77;;;4.17;;
22388;SDS011;11362;48.102;11.620;2024-03-08T10:00:18;5.27;;;3.93;;
22388;SDS011;11362;48.102;11.620;2024-03-08T10:02:44;5.97;;;4.07;;
22388;SDS011;11362;48.102;11.620;2024-03-08T10:05:10;6.70;;;3.90;;
22388;SDS011;11362;48.102;11.620;2024-03-08T10:07:37;4.23;;;3.90;;
22388;SDS011;11362;48.102;11.620;2024-03-08T10:10:03;4.33;;;4.03;;
22388;SDS011;11362;48.102;11.620;2024-03-08T10:12:28;4.03;;;3.67;;
22388;SDS011;11362;48.102;11.620;2024-03-08T10:14:55;5.17;;;3.80;;
22388;SDS011;11362;48.102;11.620;2024-03-08T10:17:20;8.10;;;4.23;;
22388;SDS011;11362;48.102;11.620;2024-03-08T10:19:49;4.33;;;3.70;;
22388;SDS011;11362;48.102;11.620;2024-03-08T10:22:15;6.20;;;4.27;;
22388;SDS011;11362;48.102;11.620;2024-03-08T10:24:40;6.07;;;4.37;;
22388;SDS011;11362;48.102;11.620;2024-03-08T10:27:05;4.17;;;3.77;;
22388;SDS011;11362;48.102;11.620;2024-03-08T10:29:31;5.27;;;3.90;;
22388;SDS011;11362;48.102;11.620;2024-03-08T10:31:57;4.20;;;3.70;;
22388;SDS011;11362;48.102;11.620;2024-03-08T10:34:23;4.70;;;4.30;;
22388;SDS011;11362;48.102;11.620;2024-03-08T10:36:50;4.07;;;3.67;;
22388;SDS011;11362;48.102;11.620;2024-03-08T10:41:52;6.67;;;3.87;;
22388;SDS011;11362;48.102;11.620;2024-03-08T10:44:26;5.20;;;4.10;;
22388;SDS011;11362;48.102;11.620;2024-03-08T10:50:07;6.47;;;4.00;;
22388;SDS011;11362;48.102;11.620;2024-03-08T10:52:40;4.63;;;4.17;;
22388;SDS011;11362;48.102;11.620;2024-03-08T10:55:06;8.63;;;4.20;;
22388;SDS011;11362;48.102;11.620;2024-03-08T10:57:33;4.07;;;3.27;;
22388;SDS011;11362;48.102;11.620;2024-03-08T10:59:58;4.53;;;3.73;;
22388;SDS011;11362;48.102;11.620;2024-03-08T11:02:24;9.30;;;4.03;;
22388;SDS011;11362;48.102;11.620;2024-03-08T11:04:50;7.07;;;3.70;;
22388;SDS011;11362;48.102;11.620;2024-03-08T11:07:16;6.07;;;3.33;;
22388;SDS011;11362;48.102;11.620;2024-03-08T11:09:42;6.17;;;3.83;;
22388;SDS011;11362;48.102;11.620;2024-03-08T11:12:26;5.10;;;3.87;;
22388;SDS011;11362;48.102;11.620;2024-03-08T11:14:53;5.37;;;3.63;;
22388;SDS011;11362;48.102;11.620;2024-03-08T11:17:25;3.90;;;3.60;;
22388;SDS011;11362;48.102;11.620;2024-03-08T11:19:51;5.23;;;3.73;;
22388;SDS011;11362;48.102;11.620;2024-03-08T11:22:23;4.13;;;3.70;;
22388;SDS011;11362;48.102;11.620;2024-03-08T11:24:52;3.87;;;3.50;;
22388;SDS011;11362;48.102;11.620;2024-03-08T11:27:18;4.53;;;3.30;;
22388;SDS011;11362;48.102;11.620;2024-03-08T11:29:44;5.40;;;3.50;;
22388;SDS011;11362;48.102;11.620;2024-03-08T11:32:15;4.20;;;3.80;;
22388;SDS011;11362;48.102;11.620;2024-03-08T11:34:42;3.90;;;3.50;;
22388;SDS011;11362;48.102;11.620;2024-03-08T11:37:10;3.70;;;3.40;;
22388;SDS011;11362;48.102;11.620;2024-03-08T11:39:38;4.30;;;4.00;;
22388;SDS011;11362;48.102;11.620;2024-03-08T11:42:04;4.83;;;3.60;;
22388;SDS011;11362;48.102;11.620;2024-03-08T11:44:30;5.47;;;3.50;;
22388;SDS011;11362;48.102;11.620;2024-03-08T11:46:55;5.63;;;3.40;;
22388;SDS011;11362;48.102;11.620;2024-03-08T11:49:20;5.77;;;4.60;;
22388;SDS011;11362;48.102;11.620;2024-03-08T11:51:46;4.23;;;3.53;;
22388;SDS011;11362;48.102;11.620;2024-03-08T11:54:12;4.40;;;4.00;;
22388;SDS011;11362;48.102;11.620;2024-03-08T11:56:37;5.63;;;3.90;;
22388;SDS011;11362;48.102;11.620;2024-03-08T11:59:03;3.87;;;3.57;;
22388;SDS011;11362;48.102;11.620;2024-03-08T12:01:28;4.33;;;3.93;;
22388;SDS011;11362;48.102;11.620;2024-03-08T12:03:54;5.00;;;3.53;;
22388;SDS011;11362;48.102;11.620;2024-03-08T12:06:20;4.13;;;3.67;;
22388;SDS011;11362;48.102;11.620;2024-03-08T12:08:45;4.40;;;3.60;;
22388;SDS011;11362;48.102;11.620;2024-03-08T12:11:11;4.80;;;3.40;;
22388;SDS011;11362;48.102;11.620;2024-03-08T12:13:37;4.13;;;3.43;;
22388;SDS011;11362;48.102;11.620;2024-03-08T12:16:02;5.10;;;3.60;;
22388;SDS011;11362;48.102;11.620;2024-03-08T12:18:28;3.93;;;3.53;;
22388;SDS011;11362;48.102;11.620;2024-03-08T12:21:06;3.90;;;3.60;;
22388;SDS011;11362;48.102;11.620;2024-03-08T12:23:36;4.60;;;3.40;;
22388;SDS011;11362;48.102;11.620;2024-03-08T12:26:11;4.33;;;3.00;;
22388;SDS011;11362;48.102;11.620;2024-03-08T12:28:42;4.37;;;4.03;;
22388;SDS011;11362;48.102;11.620;2024-03-08T12:31:09;4.27;;;3.87;;
22388;SDS011;11362;48.102;11.620;2024-03-08T12:34:00;3.60;;;3.40;;
22388;SDS011;11362;48.102;11.620;2024-03-08T12:36:22;3.90;;;3.33;;
22388;SDS011;11362;48.102;11.620;2024-03-08T12:38:47;3.63;;;3.33;;
22388;SDS011;11362;48.102;11.620;2024-03-08T12:41:19;4.13;;;3.63;;
22388;SDS011;11362;48.102;11.620;2024-03-08T12:43:45;3.57;;;3.27;;
22388;SDS011;11362;48.102;11.620;2024-03-08T12:46:10;3.83;;;3.20;;
22388;SDS011;11362;48.102;11.620;2024-03-08T12:48:36;3.53;;;3.23;;
22388;SDS011;11362;48.102;11.620;2024-03-08T12:51:01;3.67;;;3.37;;
22388;SDS011;11362;48.102;11.620;2024-03-08T12:53:26;4.00;;;3.70;;
22388;SDS011;11362;48.102;11.620;2024-03-08T12:55:52;4.13;;;3.70;;
22388;SDS011;11362;48.102;11.620;2024-03-08T12:58:17;4.63;;;3.50;;
22388;SDS011;11362;48.102;11.620;2024-03-08T13:00:42;3.77;;;3.40;;
22388;SDS011;11362;48.102;11.620;2024-03-08T13:03:07;3.60;;;3.27;;
22388;SDS011;11362;48.102;11.620;2024-03-08T13:05:33;4.20;;;3.80;;
22388;SDS011;11362;48.102;11.620;2024-03-08T13:07:58;4.37;;;3.97;;
22388;SDS011;11362;48.102;11.620;2024-03-08T13:10:23;4.20;;;3.63;;
22388;SDS011;11362;48.102;11.620;2024-03-08T13:12:50;4.03;;;3.70;;
22388;SDS011;11362;48.102;11.620;2024-03-08T13:15:16;4.37;;;3.93;;
22388;SDS011;11362;48.102;11.620;2024-03-08T13:17:41;4.23;;;3.77;;
22388;SDS011;11362;48.102;11.620;2024-03-08T13:20:07;3.57;;;3.10;;
22388;SDS011;11362;48.102;11.620;2024-03-08T13:22:33;3.97;;;3.67;;
22388;SDS011;11362;48.102;11.620;2024-03-08T13:24:58;3.37;;;3.17;;
22388;SDS011;11362;48.102;11.620;2024-03-08T13:27:23;4.13;;;3.60;;
22388;SDS011;11362;48.102;11.620;2024-03-08T13:29:49;3.30;;;3.00;;
22388;SDS011;11362;48.102;11.620;2024-03-08T13:32:15;3.77;;;3.40;;
22388;SDS011;11362;48.102;11.620;2024-03-08T13:34:41;3.80;;;3.53;;
22388;SDS011;11362;48.102;11.620;2024-03-08T13:37:07;4.10;;;3.47;;
22388;SDS011;11362;48.102;11.620;2024-03-08T13:39:32;5.17;;;3.53;;
22388;SDS011;11362;48.102;11.620;2024-03-08T13:41:57;3.83;;;3.43;;
22388;SDS011;11362;48.102;11.620;2024-03-08T13:44:23;7.10;;;3.60;;
22388;SDS011;11362;48.102;11.620;2024-03-08T13:46:48;4.80;;;3.17;;
22388;SDS011;11362;48.102;11.620;2024-03-08T13:49:13;4.70;;;3.47;;
22388;SDS011;11362;48.102;11.620;2024-03-08T13:51:39;3.60;;;3.30;;
22388;SDS011;11362;48.102;11.620;2024-03-08T13:54:04;3.90;;;3.50;;
22388;SDS011;11362;48.102;11.620;2024-03-08T13:56:29;4.33;;;3.23;;
22388;SDS011;11362;48.102;11.620;2024-03-08T13:58:55;3.47;;;3.07;;
22388;SDS011;11362;48.102;11.620;2024-03-08T14:01:20;3.50;;;3.20;;
22388;SDS011;11362;48.102;11.620;2024-03-08T14:03:45;5.20;;;3.70;;
22388;SDS011;11362;48.102;11.620;2024-03-08T14:06:11;4.17;;;3.77;;
22388;SDS011;11362;48.102;11.620;2024-03-08T14:08:36;3.70;;;3.40;;
22388;SDS011;11362;48.102;11.620;2024-03-08T14:11:02;4.13;;;3.83;;
22388;SDS011;11362;48.102;11.620;2024-03-08T14:13:27;4.60;;;3.60;;
22388;SDS011;11362;48.102;11.620;2024-03-08T14:15:52;4.37;;;3.90;;
22388;SDS011;11362;48.102;11.620;2024-03-08T14:18:18;3.77;;;3.47;;
22388;SDS011;11362;48.102;11.620;2024-03-08T14:20:43;4.03;;;3.57;;
22388;SDS011;11362;48.102;11.620;2024-03-08T14:23:08;3.30;;;3.00;;
22388;SDS011;11362;48.102;11.620;2024-03-08T14:25:33;3.97;;;3.67;;
22388;SDS011;11362;48.102;11.620;2024-03-08T14:27:59;3.97;;;3.23;;
22388;SDS011;11362;48.102;11.620;2024-03-08T14:30:24;3.03;;;2.83;;
22388;SDS011;11362;48.102;11.620;2024-03-08T14:32:49;3.43;;;3.23;;